Time;durP1;ratioP1;P1;durP2;ratioP2;P2;SDS_P1;SDS_P2;PMS_P1;PMS_P2;Temp;Humidity;BMP_temperature;BMP_pressure;BME280_temperature;BME280_humidity;BME280_pressure;Samples;Min_cycle;Max_cycle;Signal;HPM_P1;HPM_P2
2024/04/16 00:00:51;;;;;;;;;;;19.60;46.10;;;;;;8987141;26;19929;-57
2024/04/16 00:04:51;;;;;;;;;;;19.60;46.10;;;;;;8986882;26;20019;-58
2024/04/16 00:08:52;;;;;;;;;;;19.60;46.00;;;;;;8987128;26;19998;-57
2024/04/16 00:12:53;;;;;;;;;;;19.60;46.00;;;;;;9024865;26;19939;-56
2024/04/16 00:16:53;;;;;;;;;;;19.60;46.00;;;;;;9024396;26;20449;-57
2024/04/16 00:20:54;;;;;;;;;;;19.60;46.10;;;;;;9023989;26;19943;-57
2024/04/16 00:24:54;;;;;;;;;;;19.60;46.10;;;;;;9024269;26;19934;-57
2024/04/16 00:28:55;;;;;;;;;;;19.60;46.10;;;;;;8992393;26;20467;-58
2024/04/16 00:32:55;;;;;;;;;;;19.60;46.10;;;;;;9023735;26;20281;-58
2024/04/16 00:36:56;;;;;;;;;;;19.60;46.10;;;;;;9024549;26;19935;-57
2024/04/16 00:40:56;;;;;;;;;;;19.60;46.10;;;;;;9024095;26;19935;-59
2024/04/16 00:44:57;;;;;;;;;;;19.60;46.10;;;;;;9023359;26;20375;-57
2024/04/16 00:48:58;;;;;;;;;;;19.60;46.10;;;;;;9042271;26;19940;-59
2024/04/16 00:52:59;;;;;;;;;;;19.60;46.00;;;;;;9083988;26;20385;-58
2024/04/16 00:56:59;;;;;;;;;;;19.60;46.00;;;;;;9018313;26;19997;-59
2024/04/16 01:01:00;;;;;;;;;;;19.60;46.00;;;;;;9023793;26;19928;-59
2024/04/16 01:05:01;;;;;;;;;;;19.60;46.00;;;;;;8961702;26;19929;-59
2024/04/16 01:09:01;;;;;;;;;;;19.60;46.00;;;;;;9023631;26;20263;-59
2024/04/16 01:13:02;;;;;;;;;;;19.60;46.00;;;;;;8992073;26;19940;-60
2024/04/16 01:17:03;;;;;;;;;;;19.60;46.00;;;;;;9022493;26;19929;-59
2024/04/16 01:21:03;;;;;;;;;;;19.60;46.10;;;;;;9022612;26;19939;-59
2024/04/16 01:25:04;;;;;;;;;;;19.60;46.00;;;;;;9022885;26;20354;-59
2024/04/16 01:29:05;;;;;;;;;;;19.60;46.10;;;;;;9022429;26;20504;-59
2024/04/16 01:33:07;;;;;;;;;;;19.60;46.10;;;;;;9022619;26;19946;-57
2024/04/16 01:37:08;;;;;;;;;;;19.60;46.60;;;;;;9022903;26;19928;-58
2024/04/16 01:41:08;;;;;;;;;;;19.60;46.20;;;;;;9022919;26;19928;-56
2024/04/16 01:45:09;;;;;;;;;;;19.50;46.20;;;;;;9022033;26;19955;-59
2024/04/16 01:49:09;;;;;;;;;;;19.50;46.10;;;;;;9013394;26;19935;-57
2024/04/16 01:53:10;;;;;;;;;;;19.60;46.20;;;;;;9082545;26;19928;-57
2024/04/16 01:57:11;;;;;;;;;;;19.60;46.20;;;;;;9045913;26;19928;-57
2024/04/16 02:01:11;;;;;;;;;;;19.60;46.20;;;;;;9021658;26;19929;-57
2024/04/16 02:05:12;;;;;;;;;;;19.60;46.20;;;;;;9022074;26;20374;-56
2024/04/16 02:09:12;;;;;;;;;;;19.60;46.20;;;;;;8990456;26;19929;-56
2024/04/16 02:13:13;;;;;;;;;;;19.60;46.20;;;;;;9022021;26;20374;-58
2024/04/16 02:17:14;;;;;;;;;;;19.60;46.20;;;;;;9021528;26;19940;-57
2024/04/16 02:21:14;;;;;;;;;;;19.60;46.20;;;;;;9021212;26;19998;-56
2024/04/16 02:25:15;;;;;;;;;;;19.60;46.20;;;;;;9021477;26;19974;-57
2024/04/16 02:29:15;;;;;;;;;;;19.60;46.20;;;;;;9021075;26;19935;-56
2024/04/16 02:33:19;;;;;;;;;;;19.60;46.20;;;;;;8992419;26;19937;-58
2024/04/16 02:37:19;;;;;;;;;;;19.60;46.20;;;;;;8961613;26;19940;-57
2024/04/16 02:41:20;;;;;;;;;;;19.60;46.20;;;;;;8961334;26;19949;-57
2024/04/16 02:45:22;;;;;;;;;;;19.50;46.20;;;;;;8961237;26;20002;-57
2024/04/16 02:49:22;;;;;;;;;;;19.60;46.20;;;;;;8996315;26;19952;-57
2024/04/16 02:53:23;;;;;;;;;;;19.60;46.20;;;;;;9020304;26;19929;-57
2024/04/16 02:57:23;;;;;;;;;;;19.60;46.10;;;;;;8981673;26;20329;-56
2024/04/16 03:01:24;;;;;;;;;;;19.60;46.00;;;;;;8961374;26;19999;-57
2024/04/16 03:05:24;;;;;;;;;;;19.60;46.00;;;;;;8960417;26;20282;-57
2024/04/16 03:09:25;;;;;;;;;;;19.60;46.00;;;;;;8960654;26;20679;-57
2024/04/16 03:13:26;;;;;;;;;;;19.60;46.10;;;;;;8961335;26;19936;-57
2024/04/16 03:17:26;;;;;;;;;;;19.60;46.00;;;;;;8958575;26;19937;-57
2024/04/16 03:21:27;;;;;;;;;;;19.60;46.00;;;;;;8958621;26;19940;-57
2024/04/16 03:25:27;;;;;;;;;;;19.60;46.00;;;;;;8960240;26;19936;-57
2024/04/16 03:29:28;;;;;;;;;;;19.60;46.00;;;;;;8960243;26;19937;-56
2024/04/16 03:33:29;;;;;;;;;;;19.60;46.00;;;;;;8990804;26;19943;-57
2024/04/16 03:37:32;;;;;;;;;;;19.60;45.90;;;;;;9019960;26;20353;-57
2024/04/16 03:41:33;;;;;;;;;;;19.60;46.00;;;;;;9019193;26;19936;-58
2024/04/16 03:45:33;;;;;;;;;;;19.60;46.10;;;;;;9023370;26;19936;-57
2024/04/16 03:49:34;;;;;;;;;;;19.60;46.00;;;;;;9052998;26;19943;-59
2024/04/16 03:53:35;;;;;;;;;;;19.60;46.00;;;;;;9053190;26;19931;-57
2024/04/16 03:57:35;;;;;;;;;;;19.60;45.90;;;;;;9042765;26;19936;-57
2024/04/16 04:01:36;;;;;;;;;;;19.60;45.90;;;;;;9024884;26;19936;-57
2024/04/16 04:05:36;;;;;;;;;;;19.60;45.90;;;;;;9024541;26;19932;-57
2024/04/16 04:09:37;;;;;;;;;;;19.60;45.90;;;;;;9024769;26;20366;-59
2024/04/16 04:13:37;;;;;;;;;;;19.60;45.90;;;;;;9025260;26;19928;-59
2024/04/16 04:17:38;;;;;;;;;;;19.60;45.90;;;;;;9024442;26;19928;-58
2024/04/16 04:21:38;;;;;;;;;;;19.60;45.90;;;;;;9023942;26;19960;-59
2024/04/16 04:25:39;;;;;;;;;;;19.60;45.80;;;;;;9024599;26;19935;-59
2024/04/16 04:29:40;;;;;;;;;;;19.70;45.90;;;;;;9024518;26;19928;-59
2024/04/16 04:33:40;;;;;;;;;;;19.70;45.90;;;;;;8933501;26;20275;-58
2024/04/16 04:37:41;;;;;;;;;;;19.70;45.90;;;;;;8905069;26;19957;-59
2024/04/16 04:41:41;;;;;;;;;;;19.60;45.80;;;;;;8911139;26;19936;-59
2024/04/16 04:45:42;;;;;;;;;;;19.70;45.70;;;;;;8964321;26;19936;-58
2024/04/16 04:49:43;;;;;;;;;;;19.70;45.70;;;;;;9002499;26;19935;-59
2024/04/16 04:53:43;;;;;;;;;;;19.70;45.60;;;;;;9023233;26;19978;-59
2024/04/16 04:57:44;;;;;;;;;;;19.70;45.60;;;;;;8978742;26;19928;-58
2024/04/16 05:01:44;;;;;;;;;;;19.80;45.70;;;;;;8964053;26;19929;-59
2024/04/16 05:05:48;;;;;;;;;;;19.70;45.70;;;;;;8963873;26;20380;-56
2024/04/16 05:09:51;;;;;;;;;;;19.70;45.70;;;;;;8963940;26;19929;-59
2024/04/16 05:13:51;;;;;;;;;;;19.70;45.70;;;;;;8964371;26;20357;-60
2024/04/16 05:17:52;;;;;;;;;;;19.70;45.70;;;;;;8963343;26;19964;-59
2024/04/16 05:21:53;;;;;;;;;;;19.70;45.60;;;;;;8963753;26;19929;-58
2024/04/16 05:25:54;;;;;;;;;;;19.70;45.60;;;;;;8961348;26;19929;-57
2024/04/16 05:29:54;;;;;;;;;;;19.80;45.60;;;;;;8962749;26;19929;-58
2024/04/16 05:33:55;;;;;;;;;;;19.80;45.70;;;;;;9000386;26;19928;-58
2024/04/16 05:37:55;;;;;;;;;;;19.80;45.70;;;;;;9022726;26;19936;-57
2024/04/16 05:41:56;;;;;;;;;;;19.70;45.70;;;;;;9023003;26;19934;-58
2024/04/16 05:45:56;;;;;;;;;;;19.70;45.70;;;;;;9022414;26;19936;-58
2024/04/16 05:49:58;;;;;;;;;;;19.70;45.80;;;;;;9055393;26;19935;-58
2024/04/16 05:54:00;;;;;;;;;;;19.60;45.80;;;;;;9082620;26;19932;-57
2024/04/16 05:58:01;;;;;;;;;;;19.60;45.80;;;;;;8991938;26;19928;-58
2024/04/16 06:02:02;;;;;;;;;;;19.60;45.80;;;;;;8990385;26;19928;-57
2024/04/16 06:06:02;;;;;;;;;;;19.60;45.80;;;;;;9021582;26;19929;-58
2024/04/16 06:10:03;;;;;;;;;;;19.60;45.90;;;;;;9020614;26;19929;-58
2024/04/16 06:14:03;;;;;;;;;;;19.70;45.90;;;;;;9022177;26;19932;-58
2024/04/16 06:18:09;;;;;;;;;;;19.70;45.80;;;;;;9021952;26;19940;-56
2024/04/16 06:22:09;;;;;;;;;;;19.70;45.80;;;;;;9021624;26;19935;-57
2024/04/16 06:26:10;;;;;;;;;;;19.70;45.60;;;;;;9021059;26;19928;-58
2024/04/16 06:30:10;;;;;;;;;;;19.70;45.60;;;;;;9021513;26;20362;-57
2024/04/16 06:34:11;;;;;;;;;;;19.80;45.60;;;;;;8980497;26;19936;-60
2024/04/16 06:38:12;;;;;;;;;;;19.70;45.60;;;;;;8961396;26;19929;-58
2024/04/16 06:42:12;;;;;;;;;;;19.70;45.60;;;;;;8961316;26;19943;-58
2024/04/16 06:46:13;;;;;;;;;;;19.70;46.20;;;;;;8961359;26;19929;-58
2024/04/16 06:50:13;;;;;;;;;;;19.70;45.70;;;;;;8961283;26;19937;-59
2024/04/16 06:54:14;;;;;;;;;;;19.70;45.70;;;;;;8961631;26;19961;-59
2024/04/16 06:58:15;;;;;;;;;;;19.70;45.70;;;;;;8960723;26;19929;-59
2024/04/16 07:02:15;;;;;;;;;;;19.70;45.70;;;;;;8961810;26;20381;-58
2024/04/16 07:06:16;;;;;;;;;;;19.70;45.60;;;;;;8960950;26;20290;-57
2024/04/16 07:10:17;;;;;;;;;;;19.70;45.70;;;;;;8960888;26;19982;-58
2024/04/16 07:14:17;;;;;;;;;;;19.70;45.70;;;;;;8961977;26;19979;-57
2024/04/16 07:18:18;;;;;;;;;;;19.70;45.70;;;;;;8959731;26;19957;-59
2024/04/16 07:22:24;;;;;;;;;;;19.70;45.70;;;;;;8960339;26;19935;-59
2024/04/16 07:26:26;;;;;;;;;;;19.70;45.70;;;;;;8959054;26;19961;-59
2024/04/16 07:30:26;;;;;;;;;;;19.70;45.60;;;;;;8958509;26;19936;-57
2024/04/16 07:34:27;;;;;;;;;;;19.80;45.60;;;;;;9004496;26;19929;-59
2024/04/16 07:38:27;;;;;;;;;;;19.80;45.60;;;;;;9019658;26;20263;-59
2024/04/16 07:42:28;;;;;;;;;;;19.70;45.60;;;;;;9019166;26;19940;-57
2024/04/16 07:46:28;;;;;;;;;;;19.70;45.70;;;;;;8987718;26;19928;-57
2024/04/16 07:50:29;;;;;;;;;;;19.70;45.70;;;;;;9060525;26;19928;-57
2024/04/16 07:54:30;;;;;;;;;;;19.70;45.70;;;;;;9079233;26;20661;-57
2024/04/16 07:58:30;;;;;;;;;;;19.70;45.70;;;;;;9023528;26;20491;-58
2024/04/16 08:02:31;;;;;;;;;;;19.70;45.70;;;;;;9018839;26;20005;-57
2024/04/16 08:06:31;;;;;;;;;;;19.70;45.60;;;;;;9018746;26;19929;-57
2024/04/16 08:10:32;;;;;;;;;;;19.70;45.60;;;;;;9019263;26;19932;-57
2024/04/16 08:14:33;;;;;;;;;;;19.70;45.70;;;;;;9019114;26;19936;-57
2024/04/16 08:18:33;;;;;;;;;;;19.70;45.70;;;;;;9018552;26;19973;-56
2024/04/16 08:22:34;;;;;;;;;;;19.70;45.70;;;;;;9018234;26;20001;-57
2024/04/16 08:26:34;;;;;;;;;;;19.70;45.70;;;;;;9017715;26;19940;-57
2024/04/16 08:30:35;;;;;;;;;;;19.70;45.70;;;;;;9019298;26;19939;-57
2024/04/16 08:34:38;;;;;;;;;;;19.70;45.70;;;;;;8992860;26;20569;-57
2024/04/16 08:38:38;;;;;;;;;;;19.70;45.70;;;;;;9024271;26;19997;-56
2024/04/16 08:42:40;;;;;;;;;;;19.70;45.70;;;;;;9023796;26;19928;-57
2024/04/16 08:46:41;;;;;;;;;;;19.70;45.70;;;;;;8992083;26;20270;-57
2024/04/16 08:50:42;;;;;;;;;;;19.70;45.70;;;;;;9067997;26;19928;-57
2024/04/16 08:54:44;;;;;;;;;;;19.70;45.70;;;;;;9083978;26;19936;-57
2024/04/16 08:58:45;;;;;;;;;;;19.70;45.70;;;;;;9023968;26;20492;-57
2024/04/16 09:02:46;;;;;;;;;;;19.70;45.70;;;;;;9023271;26;20301;-57
2024/04/16 09:06:47;;;;;;;;;;;19.70;45.70;;;;;;9022970;26;19936;-57
2024/04/16 09:10:47;;;;;;;;;;;19.70;45.70;;;;;;9023109;26;19928;-56
2024/04/16 09:14:51;;;;;;;;;;;19.70;45.70;;;;;;9023568;26;19929;-56
2024/04/16 09:18:53;;;;;;;;;;;19.70;45.70;;;;;;9022970;26;19934;-58
2024/04/16 09:22:53;;;;;;;;;;;19.70;45.70;;;;;;9022914;26;19932;-56
2024/04/16 09:26:59;;;;;;;;;;;19.70;45.60;;;;;;9023064;26;20377;-57
2024/04/16 09:30:59;;;;;;;;;;;19.70;45.60;;;;;;9022418;26;20022;-57
2024/04/16 09:35:00;;;;;;;;;;;19.70;45.60;;;;;;8962294;26;20002;-57
2024/04/16 09:39:00;;;;;;;;;;;19.70;45.60;;;;;;8963868;26;19929;-56
2024/04/16 09:43:02;;;;;;;;;;;19.70;45.60;;;;;;8962612;26;19998;-57
2024/04/16 09:47:03;;;;;;;;;;;19.70;45.60;;;;;;8962931;26;19937;-57
2024/04/16 09:51:05;;;;;;;;;;;19.70;45.60;;;;;;9021621;26;20297;-57
2024/04/16 09:55:06;;;;;;;;;;;19.70;45.60;;;;;;9017863;26;19928;-57
2024/04/16 09:59:07;;;;;;;;;;;19.70;45.60;;;;;;8963155;26;19964;-57
2024/04/16 10:03:08;;;;;;;;;;;19.70;45.60;;;;;;8962885;26;20370;-58
2024/04/16 10:07:09;;;;;;;;;;;19.70;45.60;;;;;;8962838;26;20473;-59
2024/04/16 10:11:10;;;;;;;;;;;19.70;45.60;;;;;;8962502;26;20289;-58
2024/04/16 10:15:15;;;;;;;;;;;19.70;45.70;;;;;;8961875;26;19998;-59
2024/04/16 10:19:18;;;;;;;;;;;19.70;45.70;;;;;;8962602;26;20275;-59
2024/04/16 10:23:21;;;;;;;;;;;19.60;45.60;;;;;;8962242;26;19929;-59
2024/04/16 10:27:22;;;;;;;;;;;19.70;45.60;;;;;;8961958;26;20263;-59
2024/04/16 10:31:38;;;;;;;;;;;19.70;45.80;;;;;;8962179;26;20478;-60
2024/04/16 10:35:38;;;;;;;;;;;19.70;45.60;;;;;;8961677;26;19933;-58
2024/04/16 10:39:39;;;;;;;;;;;19.70;45.60;;;;;;8961705;26;19964;-59
2024/04/16 10:43:41;;;;;;;;;;;19.60;45.60;;;;;;8961456;26;19929;-59
2024/04/16 10:47:41;;;;;;;;;;;19.70;45.60;;;;;;8968356;26;19928;-60
2024/04/16 10:51:46;;;;;;;;;;;19.70;45.60;;;;;;9020093;26;20443;-60
2024/04/16 10:55:47;;;;;;;;;;;19.70;45.60;;;;;;9004748;26;20340;-59
2024/04/16 10:59:48;;;;;;;;;;;19.70;45.60;;;;;;8961420;26;19929;-58
2024/04/16 11:03:49;;;;;;;;;;;19.70;45.60;;;;;;8961553;26;19958;-60
2024/04/16 11:07:49;;;;;;;;;;;19.70;45.60;;;;;;8960622;26;19933;-58
2024/04/16 11:11:51;;;;;;;;;;;19.70;45.60;;;;;;8961546;26;19929;-58
2024/04/16 11:15:51;;;;;;;;;;;19.70;45.60;;;;;;8960926;26;20271;-58
2024/04/16 11:19:52;;;;;;;;;;;19.60;45.60;;;;;;8960813;26;19929;-57
2024/04/16 11:23:54;;;;;;;;;;;19.70;45.70;;;;;;8961557;26;19975;-58
2024/04/16 11:27:55;;;;;;;;;;;19.70;45.60;;;;;;8960341;26;19972;-57
2024/04/16 11:31:55;;;;;;;;;;;19.60;45.60;;;;;;8960162;26;19937;-57
2024/04/16 11:36:00;;;;;;;;;;;19.60;45.60;;;;;;8960202;26;19933;-58
2024/04/16 11:40:00;;;;;;;;;;;19.70;45.70;;;;;;8960154;26;19936;-58
2024/04/16 11:44:02;;;;;;;;;;;19.70;45.60;;;;;;8960259;26;20370;-57
2024/04/16 11:48:03;;;;;;;;;;;19.70;45.60;;;;;;8973977;26;20366;-58
2024/04/16 11:52:04;;;;;;;;;;;19.70;45.60;;;;;;9019362;26;20265;-57
2024/04/16 11:56:06;;;;;;;;;;;19.70;45.60;;;;;;9018766;26;19941;-58
2024/04/16 12:00:06;;;;;;;;;;;19.70;45.70;;;;;;8987756;26;19997;-57
2024/04/16 12:04:07;;;;;;;;;;;19.70;45.60;;;;;;9019360;26;19997;-58
2024/04/16 12:08:08;;;;;;;;;;;19.70;45.60;;;;;;9024826;26;19960;-58
2024/04/16 12:12:08;;;;;;;;;;;19.70;45.60;;;;;;9001692;26;19936;-57
2024/04/16 12:16:09;;;;;;;;;;;19.70;45.60;;;;;;8905934;26;19937;-57
2024/04/16 12:20:09;;;;;;;;;;;19.70;45.60;;;;;;8875485;26;19937;-57
2024/04/16 12:24:10;;;;;;;;;;;19.70;45.60;;;;;;8906079;26;19953;-56
2024/04/16 12:28:10;;;;;;;;;;;19.70;45.60;;;;;;8906033;26;20275;-57
2024/04/16 12:32:11;;;;;;;;;;;19.70;45.60;;;;;;8940795;26;19935;-57
2024/04/16 12:36:13;;;;;;;;;;;19.70;45.60;;;;;;8964303;26;19929;-56
2024/04/16 12:40:16;;;;;;;;;;;19.70;45.70;;;;;;8964212;26;20429;-57
2024/04/16 12:44:17;;;;;;;;;;;19.70;45.70;;;;;;8890689;26;19940;-57
2024/04/16 12:48:18;;;;;;;;;;;19.70;45.70;;;;;;8909276;26;19929;-57
2024/04/16 12:52:19;;;;;;;;;;;19.60;45.60;;;;;;9023721;26;19968;-57
2024/04/16 12:56:19;;;;;;;;;;;19.60;45.70;;;;;;9023264;26;19982;-58
2024/04/16 13:00:21;;;;;;;;;;;19.60;45.60;;;;;;9023440;26;19928;-57
2024/04/16 13:04:21;;;;;;;;;;;19.70;45.60;;;;;;9023802;26;19937;-58
2024/04/16 13:08:22;;;;;;;;;;;19.60;45.60;;;;;;9023275;26;19940;-58
2024/04/16 13:12:23;;;;;;;;;;;19.60;45.60;;;;;;8961144;26;19941;-57
2024/04/16 13:16:23;;;;;;;;;;;19.70;45.60;;;;;;8904174;26;19941;-57
2024/04/16 13:20:25;;;;;;;;;;;19.70;45.60;;;;;;8905732;26;19962;-57
2024/04/16 13:24:25;;;;;;;;;;;19.70;45.60;;;;;;8904513;26;19941;-58
2024/04/16 13:28:26;;;;;;;;;;;19.70;45.60;;;;;;8904864;26;19929;-58
2024/04/16 13:32:27;;;;;;;;;;;19.70;45.60;;;;;;8943397;26;20378;-60
2024/04/16 13:36:28;;;;;;;;;;;19.70;45.80;;;;;;8963779;26;20356;-59
2024/04/16 13:40:28;;;;;;;;;;;19.70;45.60;;;;;;8963161;26;19929;-58
2024/04/16 13:44:29;;;;;;;;;;;19.60;45.60;;;;;;8962949;26;19928;-58
2024/04/16 13:48:30;;;;;;;;;;;19.70;45.60;;;;;;8983877;26;19937;-60
2024/04/16 13:52:30;;;;;;;;;;;19.70;45.70;;;;;;9022474;26;19956;-59
2024/04/16 13:56:31;;;;;;;;;;;19.60;45.60;;;;;;9021743;26;19929;-59
2024/04/16 14:00:32;;;;;;;;;;;19.60;45.60;;;;;;9022543;26;20350;-59
2024/04/16 14:04:32;;;;;;;;;;;19.60;46.20;;;;;;9022158;26;20352;-59
2024/04/16 14:08:35;;;;;;;;;;;19.70;45.70;;;;;;9021807;26;19928;-59
2024/04/16 14:12:35;;;;;;;;;;;19.60;45.60;;;;;;9003115;26;19929;-59
2024/04/16 14:16:36;;;;;;;;;;;19.70;45.60;;;;;;8962260;26;20469;-59
2024/04/16 14:20:37;;;;;;;;;;;19.60;45.60;;;;;;8962094;26;19940;-58
2024/04/16 14:24:38;;;;;;;;;;;19.70;45.60;;;;;;8962092;26;19987;-59
2024/04/16 14:28:38;;;;;;;;;;;19.70;45.60;;;;;;8960696;26;20387;-56
2024/04/16 14:32:39;;;;;;;;;;;19.70;45.60;;;;;;8979282;26;19997;-59
2024/04/16 14:36:39;;;;;;;;;;;19.70;45.60;;;;;;9020929;26;19935;-58
2024/04/16 14:40:40;;;;;;;;;;;19.70;45.60;;;;;;8989727;26;19935;-58
2024/04/16 14:44:40;;;;;;;;;;;19.60;45.70;;;;;;9021020;26;20009;-57
2024/04/16 14:48:41;;;;;;;;;;;19.70;45.60;;;;;;9035389;26;19935;-58
2024/04/16 14:52:41;;;;;;;;;;;19.70;45.60;;;;;;9080980;26;19928;-58
2024/04/16 14:56:42;;;;;;;;;;;19.70;45.60;;;;;;9052398;26;19957;-57
2024/04/16 15:00:43;;;;;;;;;;;19.70;45.60;;;;;;9020511;26;19948;-58
2024/04/16 15:04:44;;;;;;;;;;;19.60;45.60;;;;;;9020788;26;19928;-58
2024/04/16 15:08:45;;;;;;;;;;;19.60;45.60;;;;;;9020350;26;20388;-58
2024/04/16 15:12:45;;;;;;;;;;;19.60;45.60;;;;;;9021193;26;20362;-58
2024/04/16 15:16:46;;;;;;;;;;;19.60;45.60;;;;;;9020328;26;19935;-57
2024/04/16 15:20:46;;;;;;;;;;;19.60;45.60;;;;;;9019820;26;19932;-57
2024/04/16 15:24:47;;;;;;;;;;;19.60;45.60;;;;;;9020465;26;19929;-57
2024/04/16 15:28:48;;;;;;;;;;;19.60;45.60;;;;;;9020106;26;19929;-57
2024/04/16 15:32:48;;;;;;;;;;;19.60;45.60;;;;;;9020031;26;19935;-57
2024/04/16 15:36:49;;;;;;;;;;;19.70;45.60;;;;;;9020062;26;19928;-57
2024/04/16 15:40:50;;;;;;;;;;;19.70;45.60;;;;;;9027218;26;20258;-57
2024/04/16 15:44:50;;;;;;;;;;;19.60;45.60;;;;;;9032296;26;19969;-57
2024/04/16 15:48:51;;;;;;;;;;;19.70;45.60;;;;;;9017684;26;19932;-57
2024/04/16 15:52:52;;;;;;;;;;;19.70;45.60;;;;;;9092203;26;19932;-58
2024/04/16 15:56:53;;;;;;;;;;;19.70;45.60;;;;;;9060883;26;19929;-59
2024/04/16 16:00:53;;;;;;;;;;;19.70;45.60;;;;;;9031896;26;19961;-59
2024/04/16 16:04:54;;;;;;;;;;;19.60;45.60;;;;;;9031576;26;19940;-59
2024/04/16 16:08:54;;;;;;;;;;;19.70;45.60;;;;;;9031380;26;20026;-59
2024/04/16 16:12:55;;;;;;;;;;;19.70;45.60;;;;;;9031871;26;19929;-59
2024/04/16 16:16:56;;;;;;;;;;;19.70;45.60;;;;;;9031520;26;19999;-59
2024/04/16 16:20:56;;;;;;;;;;;19.60;45.60;;;;;;9031383;26;19928;-59
2024/04/16 16:24:57;;;;;;;;;;;19.60;45.60;;;;;;9031230;26;19940;-58
2024/04/16 16:28:57;;;;;;;;;;;19.60;45.60;;;;;;9031034;26;20354;-59
2024/04/16 16:32:58;;;;;;;;;;;19.60;45.60;;;;;;9015995;26;19940;-58
2024/04/16 16:36:58;;;;;;;;;;;19.50;45.50;;;;;;9027947;26;20267;-60
2024/04/16 16:40:59;;;;;;;;;;;19.40;44.70;;;;;;9030452;26;19960;-63
2024/04/16 16:45:00;;;;;;;;;;;19.40;44.10;;;;;;9030479;26;19928;-59
2024/04/16 16:49:00;;;;;;;;;;;19.40;43.60;;;;;;9059563;26;19943;-59
2024/04/16 16:53:01;;;;;;;;;;;19.30;43.30;;;;;;9067862;26;19939;-59
2024/04/16 16:57:04;;;;;;;;;;;19.30;43.10;;;;;;9019116;26;20378;-63
2024/04/16 17:01:05;;;;;;;;;;;19.30;42.70;;;;;;9003907;26;19936;-58
2024/04/16 17:05:05;;;;;;;;;;;19.40;43.10;;;;;;9018184;26;19939;-61
2024/04/16 17:09:06;;;;;;;;;;;19.50;43.50;;;;;;9023393;26;19982;-61
2024/04/16 17:13:06;;;;;;;;;;;19.60;43.80;;;;;;8990879;26;20269;-57
2024/04/16 17:17:07;;;;;;;;;;;19.70;44.10;;;;;;9020511;26;19928;-58
2024/04/16 17:21:09;;;;;;;;;;;19.80;43.90;;;;;;9023117;26;19932;-59
2024/04/16 17:25:10;;;;;;;;;;;19.90;44.80;;;;;;9022379;26;19957;-56
2024/04/16 17:29:10;;;;;;;;;;;19.90;45.30;;;;;;9022616;26;19935;-56
2024/04/16 17:33:11;;;;;;;;;;;20.00;45.10;;;;;;9019211;26;20390;-53
2024/04/16 17:37:13;;;;;;;;;;;20.00;45.80;;;;;;9022658;26;19941;-56
2024/04/16 17:41:13;;;;;;;;;;;20.10;46.00;;;;;;8987463;26;20278;-55
2024/04/16 17:45:14;;;;;;;;;;;20.10;47.40;;;;;;9046644;26;19938;-57
2024/04/16 17:49:15;;;;;;;;;;;20.10;48.00;;;;;;9048514;26;19940;-56
2024/04/16 17:53:15;;;;;;;;;;;20.20;48.50;;;;;;9011528;26;20410;-59
2024/04/16 17:57:17;;;;;;;;;;;20.20;49.00;;;;;;9004111;26;19933;-58
2024/04/16 18:01:18;;;;;;;;;;;20.20;48.80;;;;;;8980283;26;20445;-58
2024/04/16 18:05:19;;;;;;;;;;;20.20;48.90;;;;;;9019893;26;19936;-56
2024/04/16 18:09:19;;;;;;;;;;;20.20;49.30;;;;;;9019724;26;19929;-55
2024/04/16 18:13:20;;;;;;;;;;;20.20;49.90;;;;;;8990807;26;19961;-57
2024/04/16 18:17:20;;;;;;;;;;;20.30;50.10;;;;;;9020551;26;19935;-60
2024/04/16 18:21:21;;;;;;;;;;;20.30;50.00;;;;;;9019687;26;19997;-60
2024/04/16 18:25:22;;;;;;;;;;;20.40;49.90;;;;;;9016092;26;20262;-57
2024/04/16 18:29:22;;;;;;;;;;;20.30;50.10;;;;;;9014581;26;19943;-58
2024/04/16 18:33:23;;;;;;;;;;;20.30;49.90;;;;;;9002923;26;19932;-55
2024/04/16 18:37:23;;;;;;;;;;;20.30;49.70;;;;;;9018093;26;19936;-60
2024/04/16 18:41:24;;;;;;;;;;;20.40;49.40;;;;;;9019048;26;19944;-63
2024/04/16 18:45:24;;;;;;;;;;;20.40;49.70;;;;;;9020507;26;19965;-64
2024/04/16 18:49:27;;;;;;;;;;;20.50;49.70;;;;;;9035180;26;19943;-58
2024/04/16 18:53:28;;;;;;;;;;;20.50;49.60;;;;;;9020679;26;19928;-58
2024/04/16 18:57:29;;;;;;;;;;;20.60;49.80;;;;;;9019841;26;19937;-58
2024/04/16 19:01:30;;;;;;;;;;;20.60;50.30;;;;;;8989353;26;20006;-60
2024/04/16 19:05:31;;;;;;;;;;;20.50;50.20;;;;;;9017609;26;19928;-57
2024/04/16 19:09:31;;;;;;;;;;;20.50;49.70;;;;;;9018193;26;19929;-57
2024/04/16 19:13:32;;;;;;;;;;;20.50;49.50;;;;;;9017648;26;20286;-58
2024/04/16 19:17:35;;;;;;;;;;;20.40;49.40;;;;;;9019273;26;19928;-57
2024/04/16 19:21:36;;;;;;;;;;;20.40;49.80;;;;;;8986505;26;19929;-58
2024/04/16 19:25:36;;;;;;;;;;;20.40;49.70;;;;;;8985309;26;19928;-59
2024/04/16 19:29:37;;;;;;;;;;;20.50;49.10;;;;;;8987659;26;20009;-58
2024/04/16 19:33:37;;;;;;;;;;;20.50;49.10;;;;;;9018789;26;19929;-59
2024/04/16 19:37:38;;;;;;;;;;;20.50;49.30;;;;;;9018545;26;19935;-58
2024/04/16 19:41:38;;;;;;;;;;;20.40;49.40;;;;;;9016586;26;19936;-59
2024/04/16 19:45:39;;;;;;;;;;;20.30;49.10;;;;;;8983418;26;20346;-61
2024/04/16 19:49:40;;;;;;;;;;;20.30;49.20;;;;;;9023358;26;19935;-62
2024/04/16 19:53:40;;;;;;;;;;;20.30;49.40;;;;;;8990896;26;19979;-61
2024/04/16 19:57:42;;;;;;;;;;;20.30;49.20;;;;;;9022785;26;19978;-60
2024/04/16 20:01:43;;;;;;;;;;;20.30;49.60;;;;;;9022985;26;20296;-61
2024/04/16 20:05:43;;;;;;;;;;;20.30;48.90;;;;;;9022914;26;19969;-60
2024/04/16 20:09:44;;;;;;;;;;;20.30;49.50;;;;;;9051145;26;20362;-61
2024/04/16 20:13:47;;;;;;;;;;;20.30;49.10;;;;;;9022222;26;19928;-60
2024/04/16 20:17:47;;;;;;;;;;;20.30;49.30;;;;;;9022563;26;19972;-60
2024/04/16 20:21:48;;;;;;;;;;;20.30;49.10;;;;;;9022219;26;19936;-61
2024/04/16 20:25:57;;;;;;;;;;;20.30;48.90;;;;;;9022843;26;20434;-60
2024/04/16 20:29:58;;;;;;;;;;;20.30;48.60;;;;;;9028277;26;19929;-59
2024/04/16 20:33:58;;;;;;;;;;;20.30;48.60;;;;;;9027780;26;19936;-62
2024/04/16 20:37:59;;;;;;;;;;;20.30;48.60;;;;;;9028029;26;19936;-60
2024/04/16 20:41:59;;;;;;;;;;;20.20;48.40;;;;;;9027919;26;19936;-60
2024/04/16 20:46:00;;;;;;;;;;;20.20;48.40;;;;;;9028324;26;20273;-60
2024/04/16 20:50:01;;;;;;;;;;;20.20;48.40;;;;;;9071859;26;19928;-60
2024/04/16 20:54:01;;;;;;;;;;;20.20;48.30;;;;;;9088120;26;19935;-60
2024/04/16 20:58:02;;;;;;;;;;;20.20;48.20;;;;;;9039026;26;19928;-60
2024/04/16 21:02:04;;;;;;;;;;;20.20;48.20;;;;;;9027500;26;20354;-59
2024/04/16 21:06:04;;;;;;;;;;;20.20;48.10;;;;;;9027391;26;19935;-58
2024/04/16 21:10:05;;;;;;;;;;;20.10;48.00;;;;;;9027368;26;19932;-59
2024/04/16 21:14:06;;;;;;;;;;;20.20;48.30;;;;;;9027826;26;20101;-59
2024/04/16 21:18:06;;;;;;;;;;;20.20;48.60;;;;;;9026833;26;19928;-59
2024/04/16 21:22:07;;;;;;;;;;;20.20;48.60;;;;;;9027326;26;20415;-59
2024/04/16 21:26:07;;;;;;;;;;;20.20;48.20;;;;;;9027195;26;20507;-59
2024/04/16 21:30:08;;;;;;;;;;;20.30;48.20;;;;;;8973552;26;19943;-59
2024/04/16 21:34:09;;;;;;;;;;;20.30;48.30;;;;;;8987415;26;19929;-59
2024/04/16 21:38:10;;;;;;;;;;;20.20;48.10;;;;;;8966281;26;19935;-59
2024/04/16 21:42:11;;;;;;;;;;;20.30;48.60;;;;;;8967110;26;19953;-59
2024/04/16 21:46:11;;;;;;;;;;;20.30;48.10;;;;;;8967118;26;19940;-59
2024/04/16 21:50:12;;;;;;;;;;;20.20;48.10;;;;;;8966975;26;19953;-58
2024/04/16 21:54:12;;;;;;;;;;;20.20;48.20;;;;;;8966767;26;20264;-59
2024/04/16 21:58:13;;;;;;;;;;;20.20;48.00;;;;;;8966509;26;19941;-59
2024/04/16 22:02:14;;;;;;;;;;;20.20;48.00;;;;;;8966079;26;19993;-59
2024/04/16 22:06:15;;;;;;;;;;;20.20;48.00;;;;;;8966523;26;19933;-60
2024/04/16 22:10:16;;;;;;;;;;;20.20;47.90;;;;;;8935209;26;20256;-61
2024/04/16 22:14:17;;;;;;;;;;;20.20;47.90;;;;;;8923583;26;19957;-60
2024/04/16 22:18:17;;;;;;;;;;;20.20;47.90;;;;;;8908532;26;19936;-59
2024/04/16 22:22:18;;;;;;;;;;;20.20;47.90;;;;;;8907484;26;19930;-59
2024/04/16 22:26:18;;;;;;;;;;;20.20;47.80;;;;;;8902995;26;20415;-56
2024/04/16 22:30:19;;;;;;;;;;;20.20;47.80;;;;;;8908963;26;19936;-56
2024/04/16 22:34:19;;;;;;;;;;;20.10;47.80;;;;;;8960755;26;20286;-56
2024/04/16 22:38:20;;;;;;;;;;;20.10;47.50;;;;;;8960460;26;19944;-57
2024/04/16 22:42:21;;;;;;;;;;;20.00;47.40;;;;;;8916538;26;19935;-57
2024/04/16 22:46:22;;;;;;;;;;;19.90;47.40;;;;;;8903146;26;19958;-56
2024/04/16 22:50:22;;;;;;;;;;;19.90;47.50;;;;;;8949265;26;20302;-56
2024/04/16 22:54:23;;;;;;;;;;;19.90;47.60;;;;;;8962012;26;20372;-56
2024/04/16 22:58:24;;;;;;;;;;;19.90;47.60;;;;;;8960959;26;19929;-56
2024/04/16 23:02:24;;;;;;;;;;;19.80;47.60;;;;;;8961542;26;19935;-56
2024/04/16 23:06:25;;;;;;;;;;;19.90;47.70;;;;;;8961403;26;19936;-56
2024/04/16 23:10:25;;;;;;;;;;;19.90;47.70;;;;;;8960926;26;19929;-56
2024/04/16 23:14:26;;;;;;;;;;;19.90;47.80;;;;;;8960846;26;20136;-56
2024/04/16 23:18:27;;;;;;;;;;;19.80;47.70;;;;;;8960939;26;19937;-56